createdAt,value
2022-10-07T00:06:47.241Z,63.04
2022-10-07T00:17:13.741Z,63.05
2022-10-07T00:27:41.965Z,63.14
2022-10-07T00:38:10.238Z,62.84
2022-10-07T00:48:39.330Z,62.62
2022-10-07T00:59:07.761Z,62.78
2022-10-07T01:09:35.829Z,62.81
2022-10-07T01:20:30.558Z,62.50
2022-10-07T01:31:03.644Z,62.41
2022-10-07T01:41:32.755Z,62.57
2022-10-07T01:52:34.431Z,62.70
2022-10-07T02:03:34.271Z,62.51
2022-10-07T02:14:09.532Z,62.17
2022-10-07T02:24:40.374Z,62.67
2022-10-07T02:35:17.423Z,62.81
2022-10-07T02:45:51.112Z,62.31
2022-10-07T02:56:22.253Z,62.50
2022-10-07T03:06:50.191Z,62.33
2022-10-07T03:17:18.213Z,62.24
2022-10-07T03:27:48.614Z,62.21
2022-10-07T03:38:16.427Z,61.84
2022-10-07T03:48:44.935Z,61.56
2022-10-07T03:59:12.964Z,62.15
2022-10-07T04:09:41.170Z,61.98
2022-10-07T04:20:11.022Z,62.04
2022-10-07T04:30:43.922Z,62.03
2022-10-07T04:41:12.242Z,61.50
2022-10-07T04:51:40.276Z,61.66
2022-10-07T05:02:08.410Z,61.37
2022-10-07T05:12:37.034Z,62.00
2022-10-07T05:23:05.106Z,61.89
2022-10-07T05:33:33.323Z,61.85
2022-10-07T05:44:01.505Z,62.81
2022-10-07T05:54:29.529Z,63.19
2022-10-07T06:04:57.490Z,63.81
2022-10-07T06:15:25.609Z,64.16
2022-10-07T06:25:59.421Z,64.97
2022-10-07T06:36:27.922Z,65.93
2022-10-07T06:46:55.997Z,67.46
2022-10-07T06:57:44.945Z,68.86
2022-10-07T07:08:12.402Z,69.65
2022-10-07T07:18:40.461Z,69.84
2022-10-07T07:29:07.637Z,69.86
2022-10-07T07:39:36.063Z,69.83
2022-10-07T07:50:13.120Z,69.67
2022-10-07T08:00:41.228Z,69.44
2022-10-07T08:11:11.427Z,69.09
2022-10-07T08:21:39.853Z,69.04
2022-10-07T08:32:07.972Z,69.05
2022-10-07T08:42:41.574Z,69.42
2022-10-07T08:53:16.934Z,69.58
2022-10-07T09:03:53.273Z,70.17
2022-10-07T09:14:29.202Z,70.16
2022-10-07T09:25:16.391Z,70.66
2022-10-07T09:35:57.411Z,70.86
2022-10-07T09:46:47.794Z,70.58
2022-10-07T09:57:31.698Z,70.20
2022-10-07T10:08:03.123Z,70.02
2022-10-07T10:18:37.958Z,69.43
2022-10-07T10:29:26.593Z,68.58
2022-10-07T10:40:07.454Z,67.66
2022-10-07T10:50:49.221Z,67.14
2022-10-07T11:01:28.444Z,66.15
2022-10-07T11:11:56.938Z,65.11
2022-10-07T11:22:33.597Z,64.07
2022-10-07T11:33:08.226Z,63.80
2022-10-07T11:43:44.062Z,62.80
2022-10-07T11:54:18.244Z,62.47
2022-10-07T12:04:46.335Z,61.49
2022-10-07T12:15:28.854Z,60.89
2022-10-07T12:25:58.854Z,60.56
2022-10-07T12:36:31.328Z,60.44
2022-10-07T12:47:05.190Z,60.11
2022-10-07T12:57:37.301Z,60.57
2022-10-07T13:08:37.481Z,60.61
2022-10-07T13:19:12.157Z,60.02
2022-10-07T13:29:40.798Z,60.16
2022-10-07T13:40:26.747Z,59.72
2022-10-07T13:50:58.702Z,60.28
2022-10-07T14:01:30.197Z,60.09
2022-10-07T14:12:02.330Z,59.71
2022-10-07T14:22:35.643Z,59.45
2022-10-07T14:33:29.038Z,59.93
2022-10-07T14:44:00.456Z,60.07
2022-10-07T14:54:29.160Z,60.08
2022-10-07T15:04:57.167Z,60.28
2022-10-07T15:15:25.322Z,60.95
2022-10-07T15:25:54.259Z,61.69
2022-10-07T15:36:22.803Z,62.17
2022-10-07T15:46:55.021Z,62.79
2022-10-07T15:57:24.558Z,62.69
2022-10-07T16:07:52.732Z,62.78
2022-10-07T16:18:20.753Z,63.24
2022-10-07T16:29:07.671Z,63.65
2022-10-07T16:39:35.746Z,64.04
2022-10-07T16:50:08.756Z,64.13
2022-10-07T17:00:39.147Z,63.98
2022-10-07T17:11:07.742Z,63.95
2022-10-07T17:21:37.133Z,63.89
2022-10-07T17:32:05.285Z,64.36
2022-10-07T17:42:33.492Z,64.36
2022-10-07T17:53:01.686Z,64.83
2022-10-07T18:03:29.769Z,65.13
2022-10-07T18:14:15.382Z,65.17
2022-10-07T18:24:43.650Z,65.87
2022-10-07T18:35:12.149Z,65.95
2022-10-07T18:45:40.263Z,65.58
2022-10-07T18:56:11.666Z,65.57
2022-10-07T19:06:43.975Z,65.30
2022-10-07T19:17:12.622Z,65.14
2022-10-07T19:27:40.819Z,65.38
2022-10-07T19:38:09.263Z,65.51
2022-10-07T19:48:38.749Z,65.32
2022-10-07T19:59:09.221Z,65.35
2022-10-07T20:09:37.233Z,65.27
2022-10-07T20:20:05.575Z,64.95
2022-10-07T20:30:35.354Z,64.86
2022-10-07T20:41:20.685Z,64.55
2022-10-07T20:51:48.718Z,64.62
2022-10-07T21:02:18.634Z,64.68
2022-10-07T21:12:46.952Z,63.94
2022-10-07T21:23:15.029Z,64.65
2022-10-07T21:33:43.178Z,64.60
2022-10-07T21:44:14.351Z,64.48
2022-10-07T21:54:42.407Z,64.25
2022-10-07T22:05:11.760Z,64.07
2022-10-07T22:15:40.051Z,64.28
2022-10-07T22:26:12.496Z,64.39
2022-10-07T22:36:40.568Z,64.13
2022-10-07T22:47:08.774Z,64.25
2022-10-07T22:57:37.699Z,64.13
2022-10-07T23:08:06.150Z,64.14
2022-10-07T23:18:34.565Z,63.36
2022-10-07T23:29:03.569Z,63.45
2022-10-07T23:39:31.516Z,63.63
2022-10-07T23:49:57.970Z,63.53
